createdAt,value
2019-01-23T00:01:36.379Z,33.33
2019-01-23T00:04:06.558Z,33.57
2019-01-23T00:06:36.436Z,32.90
2019-01-23T00:09:07.961Z,32.60
2019-01-23T00:11:38.981Z,31.73
2019-01-23T00:14:08.009Z,33.63
2019-01-23T00:16:37.027Z,28.63
2019-01-23T00:19:06.339Z,33.83
2019-01-23T00:21:36.124Z,31.10
2019-01-23T00:24:06.044Z,29.90
2019-01-23T00:26:36.164Z,33.47
2019-01-23T00:29:05.876Z,30.70
2019-01-23T00:31:37.547Z,27.73
2019-01-23T00:34:07.690Z,29.77
2019-01-23T00:36:37.891Z,31.10
2019-01-23T00:39:09.111Z,31.40
2019-01-23T00:41:40.655Z,31.47
2019-01-23T00:44:10.399Z,31.83
2019-01-23T00:46:43.273Z,31.97
2019-01-23T00:49:13.606Z,29.73
2019-01-23T00:51:45.561Z,31.07
2019-01-23T00:54:14.765Z,29.70
2019-01-23T00:56:48.612Z,26.37
2019-01-23T00:59:18.312Z,29.60
2019-01-23T01:01:49.786Z,27.73
2019-01-23T01:04:19.772Z,28.73
2019-01-23T01:06:54.167Z,29.33
2019-01-23T01:09:23.907Z,31.20
2019-01-23T01:11:56.665Z,29.17
2019-01-23T01:14:26.409Z,28.07
2019-01-23T01:17:01.025Z,27.07
2019-01-23T01:19:30.744Z,27.40
2019-01-23T01:22:03.585Z,29.23
2019-01-23T01:24:32.595Z,25.27
2019-01-23T01:27:06.336Z,27.70
2019-01-23T01:29:37.104Z,27.10
2019-01-23T01:32:08.387Z,27.33
2019-01-23T01:34:38.428Z,27.53
2019-01-23T01:37:18.632Z,24.13
2019-01-23T01:39:47.909Z,26.50
2019-01-23T01:42:17.609Z,28.50
2019-01-23T01:44:47.388Z,27.13
2019-01-23T01:47:19.067Z,29.57
2019-01-23T01:49:48.091Z,27.23
2019-01-23T01:52:22.621Z,28.73
2019-01-23T01:54:52.588Z,30.03
2019-01-23T01:57:23.956Z,26.93
2019-01-23T01:59:52.996Z,27.03
2019-01-23T02:02:27.309Z,29.50
2019-01-23T02:04:57.099Z,27.23
2019-01-23T02:07:27.688Z,27.90
2019-01-23T02:09:57.392Z,25.70
2019-01-23T02:12:31.441Z,28.77
2019-01-23T02:15:00.447Z,27.13
2019-01-23T02:17:36.119Z,27.10
2019-01-23T02:20:09.200Z,24.73
2019-01-23T02:22:39.023Z,24.33
2019-01-23T02:25:09.234Z,28.13
2019-01-23T02:27:39.462Z,27.40
2019-01-23T02:30:10.811Z,24.83
2019-01-23T02:32:42.368Z,26.90
2019-01-23T02:35:12.239Z,27.70
2019-01-23T02:37:44.752Z,28.00
2019-01-23T02:40:17.292Z,27.03
2019-01-23T02:42:48.871Z,28.17
2019-01-23T02:45:19.852Z,29.70
2019-01-23T02:47:52.436Z,26.47
2019-01-23T02:50:22.132Z,27.57
2019-01-23T02:52:56.125Z,27.10
2019-01-23T02:55:26.100Z,27.70
2019-01-23T02:57:58.619Z,27.80
2019-01-23T03:00:27.669Z,27.60
2019-01-23T03:03:01.590Z,28.10
2019-01-23T03:05:31.332Z,27.37
2019-01-23T03:08:03.799Z,29.90
2019-01-23T03:10:33.558Z,26.70
2019-01-23T03:13:06.878Z,27.83
2019-01-23T03:15:37.973Z,27.50
2019-01-23T03:18:12.475Z,26.97
2019-01-23T03:20:42.213Z,30.60
2019-01-23T03:23:13.523Z,27.97
2019-01-23T03:25:43.213Z,25.83
2019-01-23T03:28:17.137Z,28.33
2019-01-23T03:30:47.087Z,28.43
2019-01-23T03:33:19.285Z,26.23
2019-01-23T03:35:48.995Z,29.80
2019-01-23T03:38:21.577Z,28.40
2019-01-23T03:40:51.240Z,30.63
2019-01-23T03:43:25.308Z,30.57
2019-01-23T03:45:55.591Z,25.53
2019-01-23T03:48:28.451Z,30.17
2019-01-23T03:50:57.483Z,31.00
2019-01-23T03:53:29.998Z,28.60
2019-01-23T03:55:59.708Z,30.47
2019-01-23T03:58:32.637Z,29.27
2019-01-23T04:01:02.535Z,29.83
2019-01-23T04:03:35.952Z,30.67
2019-01-23T04:06:05.947Z,30.83
2019-01-23T04:08:38.667Z,30.77
2019-01-23T04:11:09.597Z,29.20
2019-01-23T04:13:40.667Z,30.90
2019-01-23T04:16:09.710Z,30.63
2019-01-23T04:18:42.263Z,32.53
2019-01-23T04:21:11.971Z,30.23
2019-01-23T04:23:44.907Z,34.53
2019-01-23T04:26:14.183Z,32.47
2019-01-23T04:28:48.456Z,31.23
2019-01-23T04:31:18.201Z,30.20
2019-01-23T04:33:53.045Z,28.87
2019-01-23T04:36:22.749Z,32.10
2019-01-23T04:38:56.087Z,29.70
2019-01-23T04:41:26.050Z,29.90
2019-01-23T04:43:59.261Z,28.17
2019-01-23T04:46:28.319Z,32.20
2019-01-23T04:49:01.204Z,31.13
2019-01-23T04:51:49.230Z,29.47
2019-01-23T04:54:19.936Z,28.83
2019-01-23T04:56:49.620Z,28.07
2019-01-23T04:59:19.398Z,28.27
2019-01-23T05:01:48.417Z,30.13
2019-01-23T05:04:18.240Z,30.37
2019-01-23T05:06:47.755Z,31.53
2019-01-23T05:09:17.538Z,33.17
2019-01-23T05:11:48.120Z,33.87
2019-01-23T05:14:18.143Z,33.10
2019-01-23T05:16:47.177Z,31.10
2019-01-23T05:19:20.121Z,36.93
2019-01-23T05:21:49.855Z,32.93
2019-01-23T05:24:23.133Z,34.57
2019-01-23T05:26:53.086Z,31.77
2019-01-23T05:29:25.449Z,32.60
2019-01-23T05:31:54.490Z,30.70
2019-01-23T05:34:29.587Z,35.70
2019-01-23T05:36:59.407Z,36.13
2019-01-23T05:42:08.852Z,36.00
2019-01-23T05:44:40.754Z,41.23
2019-01-23T05:47:11.128Z,40.37
2019-01-23T05:49:40.897Z,43.50
2019-01-23T05:52:10.599Z,36.97
2019-01-23T05:54:40.604Z,37.40
2019-01-23T05:57:10.338Z,37.33
2019-01-23T05:59:40.468Z,35.93
2019-01-23T06:02:10.625Z,33.37
2019-01-23T06:04:43.952Z,30.63
2019-01-23T06:07:13.710Z,30.00
2019-01-23T06:09:48.540Z,31.80
2019-01-23T06:12:18.575Z,29.27
2019-01-23T06:14:50.751Z,29.87
2019-01-23T06:17:19.785Z,29.03
2019-01-23T06:19:54.252Z,30.33
2019-01-23T06:22:31.727Z,30.77
2019-01-23T06:25:00.949Z,30.10
2019-01-23T06:27:30.176Z,31.90
2019-01-23T06:30:00.571Z,30.87
2019-01-23T06:32:29.615Z,30.43
2019-01-23T06:35:06.167Z,31.67
2019-01-23T06:37:36.747Z,28.90
2019-01-23T06:40:10.879Z,30.33
2019-01-23T06:42:40.624Z,31.10
2019-01-23T06:45:12.431Z,29.60
2019-01-23T06:47:42.236Z,28.07
2019-01-23T06:50:18.833Z,30.73
2019-01-23T06:53:18.829Z,28.53
2019-01-23T06:55:48.218Z,32.13
2019-01-23T06:58:26.015Z,27.67
2019-01-23T07:00:55.974Z,30.73
2019-01-23T07:03:25.993Z,29.73
2019-01-23T07:05:56.072Z,30.30
2019-01-23T07:08:25.846Z,29.17
2019-01-23T07:10:55.556Z,29.83
2019-01-23T07:13:26.419Z,29.53
2019-01-23T07:18:31.292Z,36.07
2019-01-23T07:21:00.494Z,33.53
2019-01-23T07:23:30.296Z,36.17
2019-01-23T07:26:03.080Z,33.23
2019-01-23T07:28:33.518Z,31.73
2019-01-23T07:31:03.201Z,34.10
2019-01-23T07:33:37.686Z,33.07
2019-01-23T07:36:07.378Z,34.97
2019-01-23T07:38:37.101Z,32.17
2019-01-23T07:41:07.121Z,34.73
2019-01-23T07:43:41.584Z,32.20
2019-01-23T07:46:11.354Z,36.43
2019-01-23T07:48:42.186Z,34.07
2019-01-23T07:51:11.896Z,32.60
2019-01-23T07:53:43.630Z,33.63
2019-01-23T07:56:13.358Z,31.70
2019-01-23T07:58:47.673Z,31.97
2019-01-23T08:01:17.646Z,33.17
2019-01-23T08:03:50.080Z,33.00
2019-01-23T08:06:19.835Z,33.87
2019-01-23T08:08:55.322Z,33.07
2019-01-23T08:11:25.086Z,32.33
2019-01-23T08:13:55.306Z,30.80
2019-01-23T08:16:26.063Z,31.87
2019-01-23T08:19:01.840Z,31.93
2019-01-23T08:21:31.819Z,33.23
2019-01-23T08:24:02.180Z,33.00
2019-01-23T08:26:31.928Z,33.30
2019-01-23T08:29:06.445Z,32.90
2019-01-23T08:31:36.336Z,29.47
2019-01-23T08:34:10.635Z,30.63
2019-01-23T08:36:40.382Z,33.07
2019-01-23T08:39:13.459Z,30.63
2019-01-23T08:41:43.466Z,31.57
2019-01-23T08:44:17.503Z,28.60
2019-01-23T08:46:47.225Z,28.47
2019-01-23T08:49:20.018Z,30.03
2019-01-23T08:51:50.055Z,31.13
2019-01-23T08:54:22.621Z,28.47
2019-01-23T08:56:52.480Z,29.10
2019-01-23T08:59:24.138Z,29.77
2019-01-23T09:01:53.840Z,31.70
2019-01-23T09:04:26.365Z,29.83
2019-01-23T09:06:55.695Z,26.70
2019-01-23T09:09:28.333Z,30.33
2019-01-23T09:11:58.078Z,31.80
2019-01-23T09:14:31.940Z,29.10
2019-01-23T09:17:01.690Z,31.27
2019-01-23T09:19:34.723Z,27.70
2019-01-23T09:22:04.476Z,27.50
2019-01-23T09:24:38.369Z,27.50
2019-01-23T09:27:08.149Z,23.07
2019-01-23T09:29:40.664Z,30.47
2019-01-23T09:32:48.548Z,26.60
2019-01-23T09:35:45.472Z,27.83
2019-01-23T09:39:06.268Z,29.93
2019-01-23T09:41:55.641Z,27.17
2019-01-23T09:44:46.934Z,26.73
2019-01-23T09:47:34.165Z,27.27
2019-01-23T09:50:49.573Z,27.37
2019-01-23T09:53:30.217Z,28.00
2019-01-23T09:56:00.546Z,27.07
2019-01-23T09:58:30.433Z,27.47
2019-01-23T10:01:00.252Z,27.33
2019-01-23T10:03:29.302Z,29.67
2019-01-23T10:06:00.964Z,28.97
2019-01-23T10:08:30.983Z,28.07
2019-01-23T10:11:03.976Z,26.23
2019-01-23T10:13:33.702Z,24.57
2019-01-23T10:16:10.584Z,24.20
2019-01-23T10:18:40.288Z,26.33
2019-01-23T10:21:11.002Z,23.70
2019-01-23T10:23:41.042Z,27.53
2019-01-23T10:26:14.253Z,30.70
2019-01-23T10:28:43.957Z,26.37
2019-01-23T10:31:17.047Z,25.47
2019-01-23T10:33:46.786Z,27.47
2019-01-23T10:36:19.120Z,26.03
2019-01-23T10:38:48.468Z,24.03
2019-01-23T10:41:21.801Z,28.03
2019-01-23T10:43:51.670Z,26.73
2019-01-23T10:46:33.775Z,26.37
2019-01-23T10:49:03.615Z,28.63
2019-01-23T10:51:33.436Z,28.77
2019-01-23T10:54:05.935Z,25.47
2019-01-23T10:56:37.614Z,26.90
2019-01-23T10:59:07.335Z,23.60
2019-01-23T11:01:37.660Z,25.80
2019-01-23T11:04:07.610Z,25.07
2019-01-23T11:06:37.657Z,27.87
2019-01-23T11:09:08.019Z,26.27
2019-01-23T11:11:40.822Z,27.37
2019-01-23T11:14:10.570Z,26.80
2019-01-23T11:16:40.299Z,27.80
2019-01-23T11:19:10.052Z,27.17
2019-01-23T11:21:43.601Z,28.53
2019-01-23T11:24:17.478Z,25.83
2019-01-23T11:26:47.296Z,28.90
2019-01-23T11:29:17.392Z,26.43
2019-01-23T11:31:47.298Z,26.47
2019-01-23T11:34:16.313Z,23.57
2019-01-23T11:36:51.047Z,23.50
2019-01-23T11:39:20.743Z,25.93
2019-01-23T11:41:53.623Z,24.90
2019-01-23T11:44:23.381Z,25.90
2019-01-23T11:46:57.617Z,25.53
2019-01-23T11:49:27.038Z,25.87
2019-01-23T11:52:01.198Z,26.77
2019-01-23T11:54:31.237Z,28.97
2019-01-23T11:57:04.033Z,27.40
2019-01-23T11:59:33.738Z,27.03
2019-01-23T12:02:07.471Z,29.43
2019-01-23T12:04:37.264Z,25.73
2019-01-23T12:07:10.877Z,27.03
2019-01-23T12:09:41.047Z,25.53
2019-01-23T12:12:13.884Z,28.27
2019-01-23T12:14:44.720Z,26.17
2019-01-23T12:17:16.357Z,25.43
2019-01-23T12:19:46.076Z,25.90
2019-01-23T12:22:18.619Z,23.10
2019-01-23T12:24:48.418Z,23.10
2019-01-23T12:27:21.549Z,24.23
2019-01-23T12:29:52.581Z,24.67
2019-01-23T12:32:23.265Z,24.67
2019-01-23T12:34:53.007Z,22.33
2019-01-23T12:37:26.216Z,22.40
2019-01-23T12:39:55.288Z,23.23
2019-01-23T12:42:29.586Z,25.20
2019-01-23T12:44:59.471Z,24.07
2019-01-23T12:47:32.287Z,26.70
2019-01-23T12:50:02.080Z,22.13
2019-01-23T12:52:36.260Z,21.00
2019-01-23T12:55:06.846Z,22.27
2019-01-23T12:57:37.458Z,25.27
2019-01-23T13:00:10.770Z,24.73
2019-01-23T13:02:40.523Z,23.57
2019-01-23T13:05:11.540Z,23.67
2019-01-23T13:07:42.059Z,23.37
2019-01-23T13:10:12.907Z,23.43
2019-01-23T13:12:43.783Z,23.20
2019-01-23T13:15:15.765Z,24.47
2019-01-23T13:17:47.443Z,25.47
2019-01-23T13:20:16.794Z,26.63
2019-01-23T13:22:51.488Z,22.10
2019-01-23T13:25:23.396Z,24.83
2019-01-23T13:27:53.057Z,23.97
2019-01-23T13:30:24.086Z,22.87
2019-01-23T13:32:56.278Z,23.00
2019-01-23T13:35:29.556Z,22.67
2019-01-23T13:37:59.473Z,22.00
2019-01-23T13:40:32.461Z,24.47
2019-01-23T13:43:02.628Z,23.57
2019-01-23T13:45:32.413Z,24.20
2019-01-23T13:48:05.663Z,24.30
2019-01-23T13:50:34.725Z,25.20
2019-01-23T13:53:12.009Z,23.47
2019-01-23T13:55:42.054Z,25.73
2019-01-23T13:58:15.009Z,26.43
2019-01-23T14:00:44.991Z,26.17
2019-01-23T14:05:43.613Z,25.70
2019-01-23T14:08:19.949Z,25.43
2019-01-23T14:10:49.525Z,23.87
2019-01-23T14:13:20.861Z,24.50
2019-01-23T14:15:50.636Z,24.10
2019-01-23T14:18:22.947Z,24.63
2019-01-23T14:20:52.712Z,24.60
2019-01-23T14:23:24.777Z,26.83
2019-01-23T14:25:54.545Z,25.43
2019-01-23T14:28:28.151Z,26.73
2019-01-23T14:31:00.440Z,36.47
2019-01-23T14:33:30.205Z,28.53
2019-01-23T14:35:59.916Z,31.97
2019-01-23T14:38:32.932Z,27.30
2019-01-23T14:41:02.156Z,24.00
2019-01-23T14:43:36.979Z,26.73
2019-01-23T14:46:24.141Z,27.70
2019-01-23T14:48:53.925Z,25.30
2019-01-23T14:51:24.038Z,26.97
2019-01-23T14:53:53.924Z,26.63
2019-01-23T14:56:25.071Z,25.67
2019-01-23T14:58:55.213Z,25.43
2019-01-23T15:01:24.989Z,24.67
2019-01-23T15:03:54.897Z,26.60
2019-01-23T15:06:24.568Z,24.73
2019-01-23T15:08:54.331Z,25.57
2019-01-23T15:11:24.079Z,24.93
2019-01-23T15:13:54.098Z,23.53
2019-01-23T15:16:23.852Z,24.10
2019-01-23T15:18:54.865Z,25.83
2019-01-23T15:21:24.879Z,25.00
2019-01-23T15:23:55.425Z,26.83
2019-01-23T15:26:24.675Z,25.23
2019-01-23T15:29:02.944Z,25.90
2019-01-23T15:31:32.056Z,26.60
2019-01-23T15:34:02.599Z,26.77
2019-01-23T15:36:32.594Z,26.30
2019-01-23T15:39:07.502Z,26.07
2019-01-23T15:41:39.185Z,24.83
2019-01-23T15:44:09.930Z,25.77
2019-01-23T15:46:39.830Z,26.67
2019-01-23T15:49:12.323Z,25.87
2019-01-23T15:51:41.620Z,37.20
2019-01-23T15:54:16.167Z,29.83
2019-01-23T15:56:50.967Z,33.30
2019-01-23T15:59:24.640Z,27.50
2019-01-23T16:01:53.873Z,27.97
2019-01-23T16:04:23.676Z,28.73
2019-01-23T16:06:53.817Z,29.07
2019-01-23T16:09:23.929Z,30.90
2019-01-23T16:11:53.644Z,29.70
2019-01-23T16:14:24.239Z,28.57
2019-01-23T16:16:53.312Z,25.20
2019-01-23T16:19:29.112Z,26.30
2019-01-23T16:21:59.261Z,26.00
2019-01-23T16:24:29.658Z,26.40
2019-01-23T16:26:58.756Z,26.37
2019-01-23T16:29:34.848Z,24.07
2019-01-23T16:32:05.072Z,23.03
2019-01-23T16:34:35.240Z,26.00
2019-01-23T16:37:06.189Z,27.10
2019-01-23T16:39:39.974Z,27.13
2019-01-23T16:42:09.839Z,26.23
2019-01-23T16:44:41.882Z,27.30
2019-01-23T16:47:12.973Z,27.83
2019-01-23T16:49:44.703Z,28.67
2019-01-23T16:52:13.812Z,26.87
2019-01-23T16:54:46.666Z,25.97
2019-01-23T16:57:16.391Z,27.53
2019-01-23T16:59:49.301Z,29.63
2019-01-23T17:02:18.551Z,47.17
2019-01-23T17:04:51.032Z,27.63
2019-01-23T17:07:21.292Z,26.00
2019-01-23T17:09:55.859Z,26.33
2019-01-23T17:12:26.828Z,26.37
2019-01-23T17:14:57.857Z,28.73
2019-01-23T17:17:26.912Z,25.43
2019-01-23T17:20:05.282Z,26.27
2019-01-23T17:22:35.081Z,28.43
2019-01-23T17:25:07.871Z,26.93
2019-01-23T17:27:39.179Z,25.70
2019-01-23T17:30:09.842Z,28.00
2019-01-23T17:32:45.621Z,26.63
2019-01-23T17:35:14.776Z,27.00
2019-01-23T17:37:46.082Z,26.90
2019-01-23T17:40:16.513Z,27.23
2019-01-23T17:42:45.864Z,25.53
2019-01-23T17:45:17.394Z,27.80
2019-01-23T17:47:47.230Z,25.93
2019-01-23T17:50:18.894Z,27.17
2019-01-23T17:52:49.198Z,28.00
2019-01-23T17:55:30.649Z,27.57
2019-01-23T17:58:00.903Z,26.80
2019-01-23T18:00:34.778Z,26.63
2019-01-23T18:03:04.969Z,26.53
2019-01-23T18:05:38.276Z,26.67
2019-01-23T18:08:08.125Z,25.60
2019-01-23T18:10:39.499Z,26.10
2019-01-23T18:13:08.922Z,26.50
2019-01-23T18:15:38.908Z,27.03
2019-01-23T18:18:08.255Z,26.97
2019-01-23T18:20:38.483Z,26.00
2019-01-23T18:23:07.554Z,24.67
2019-01-23T18:25:37.779Z,26.50
2019-01-23T18:28:07.373Z,28.77
2019-01-23T18:30:42.385Z,28.23
2019-01-23T18:33:13.815Z,27.97
2019-01-23T18:36:00.601Z,29.60
2019-01-23T18:38:46.435Z,29.70
2019-01-23T18:41:47.247Z,30.17
2019-01-23T18:44:33.187Z,28.17
2019-01-23T18:47:49.482Z,29.20
2019-01-23T18:50:36.293Z,29.07
2019-01-23T18:53:06.406Z,29.57
2019-01-23T18:55:36.046Z,32.87
2019-01-23T18:58:06.155Z,28.33
2019-01-23T19:00:37.997Z,26.10
2019-01-23T19:03:08.194Z,29.80
2019-01-23T19:05:38.477Z,27.97
2019-01-23T19:08:09.504Z,26.63
2019-01-23T19:10:40.337Z,28.63
2019-01-23T19:13:09.494Z,28.50
2019-01-23T19:15:41.602Z,29.83
2019-01-23T19:18:12.047Z,28.00
2019-01-23T19:20:41.886Z,28.40
2019-01-23T19:23:14.650Z,29.70
2019-01-23T19:25:44.654Z,29.37
2019-01-23T19:28:16.054Z,30.00
2019-01-23T19:30:45.809Z,30.20
2019-01-23T19:33:19.069Z,28.30
2019-01-23T19:35:48.841Z,29.90
2019-01-23T19:38:21.759Z,29.83
2019-01-23T19:40:53.818Z,29.80
2019-01-23T19:43:23.213Z,28.33
2019-01-23T19:45:52.973Z,29.00
2019-01-23T19:48:26.378Z,28.03
2019-01-23T19:50:59.260Z,28.90
2019-01-23T19:53:29.035Z,30.07
2019-01-23T19:55:59.058Z,30.53
2019-01-23T19:58:31.259Z,27.57
2019-01-23T20:01:00.393Z,30.80
2019-01-23T20:03:33.336Z,28.73
2019-01-23T20:06:03.123Z,28.43
2019-01-23T20:08:37.238Z,29.33
2019-01-23T20:11:06.953Z,28.00
2019-01-23T20:13:38.679Z,28.67
2019-01-23T20:16:08.774Z,30.57
2019-01-23T20:18:43.593Z,31.03
2019-01-23T20:21:13.618Z,28.63
2019-01-23T20:23:49.786Z,29.23
2019-01-23T20:26:19.634Z,30.27
2019-01-23T20:28:48.999Z,29.20
2019-01-23T20:31:19.940Z,29.80
2019-01-23T20:33:50.697Z,28.67
2019-01-23T20:36:20.745Z,30.67
2019-01-23T20:38:51.715Z,29.77
2019-01-23T20:41:20.888Z,30.50
2019-01-23T20:43:54.849Z,31.10
2019-01-23T20:46:26.922Z,28.63
2019-01-23T20:48:58.917Z,30.90
2019-01-23T20:51:28.957Z,28.60
2019-01-23T20:54:01.782Z,31.17
2019-01-23T20:56:30.978Z,31.30
2019-01-23T20:59:04.799Z,33.00
2019-01-23T21:01:34.610Z,29.63
2019-01-23T21:06:37.633Z,29.93
2019-01-23T21:09:15.456Z,30.53
2019-01-23T21:11:46.662Z,31.13
2019-01-23T21:14:16.464Z,32.37
2019-01-23T21:16:46.227Z,33.63
2019-01-23T21:19:19.011Z,34.83
2019-01-23T21:21:48.856Z,33.77
2019-01-23T21:24:22.206Z,36.17
2019-01-23T21:26:52.366Z,35.17
2019-01-23T21:29:22.133Z,42.87
2019-01-23T21:31:52.046Z,36.87
2019-01-23T21:34:24.444Z,33.83
2019-01-23T21:36:53.538Z,35.23
2019-01-23T21:39:28.160Z,33.13
2019-01-23T21:41:58.348Z,33.50
2019-01-23T21:44:29.483Z,36.17
2019-01-23T21:47:00.361Z,34.60
2019-01-23T21:49:31.945Z,34.23
2019-01-23T21:52:01.683Z,33.20
2019-01-23T21:54:33.720Z,32.53
2019-01-23T21:57:03.735Z,34.50
2019-01-23T21:59:38.163Z,33.93
2019-01-23T22:02:07.566Z,33.10
2019-01-23T22:04:39.491Z,34.47
2019-01-23T22:07:08.556Z,36.33
2019-01-23T22:09:42.490Z,35.63
2019-01-23T22:12:12.531Z,35.10
2019-01-23T22:14:46.036Z,33.87
2019-01-23T22:17:15.832Z,34.77
2019-01-23T22:19:48.371Z,34.50
2019-01-23T22:22:18.099Z,37.97
2019-01-23T22:24:51.990Z,33.93
2019-01-23T22:27:21.045Z,35.60
2019-01-23T22:29:52.334Z,33.87
2019-01-23T22:32:22.449Z,32.30
2019-01-23T22:34:58.114Z,33.03
2019-01-23T22:37:28.121Z,36.40
2019-01-23T22:39:59.524Z,33.63
2019-01-23T22:42:29.326Z,33.53
2019-01-23T22:45:06.918Z,33.53
2019-01-23T22:47:37.674Z,33.47
2019-01-23T22:50:10.789Z,30.63
2019-01-23T22:52:40.512Z,35.13
2019-01-23T22:55:10.785Z,32.17
2019-01-23T22:57:40.809Z,32.73
2019-01-23T23:00:21.980Z,30.43
2019-01-23T23:02:52.140Z,34.47
2019-01-23T23:05:21.857Z,31.27
2019-01-23T23:07:51.574Z,32.00
2019-01-23T23:10:23.168Z,31.57
2019-01-23T23:12:52.977Z,30.00
2019-01-23T23:15:22.808Z,29.23
2019-01-23T23:17:52.832Z,32.77
2019-01-23T23:20:22.808Z,32.67
2019-01-23T23:22:52.517Z,30.83
2019-01-23T23:25:25.958Z,32.40
2019-01-23T23:27:55.696Z,31.90
2019-01-23T23:30:28.676Z,31.33
2019-01-23T23:32:58.066Z,29.53
2019-01-23T23:35:30.936Z,32.40
2019-01-23T23:38:00.696Z,33.40
2019-01-23T23:40:33.828Z,32.77
2019-01-23T23:43:02.870Z,32.23
2019-01-23T23:45:37.310Z,32.13
2019-01-23T23:48:07.513Z,30.93
2019-01-23T23:50:39.994Z,32.20
2019-01-23T23:53:10.613Z,30.97
2019-01-23T23:55:40.605Z,32.50
2019-01-23T23:58:09.616Z,30.33
